sensor_id;sensor_type;location;lat;lon;timestamp;temperature;humidity
20534;DHT22;12929;56.822;26.056;2022-09-12T00:01:26;9.30;99.90
20534;DHT22;12929;56.822;26.056;2022-09-12T00:03:56;9.30;99.90
20534;DHT22;12929;56.822;26.056;2022-09-12T00:06:29;9.20;99.90
20534;DHT22;12929;56.822;26.056;2022-09-12T00:09:03;9.30;99.90
20534;DHT22;12929;56.822;26.056;2022-09-12T00:11:33;9.30;99.90
20534;DHT22;12929;56.822;26.056;2022-09-12T00:14:01;9.20;99.90
20534;DHT22;12929;56.822;26.056;2022-09-12T00:16:31;9.20;99.90
20534;DHT22;12929;56.822;26.056;2022-09-12T00:19:00;9.20;99.90
20534;DHT22;12929;56.822;26.056;2022-09-12T00:21:28;9.20;99.90
20534;DHT22;12929;56.822;26.056;2022-09-12T00:23:56;9.30;99.90
20534;DHT22;12929;56.822;26.056;2022-09-12T00:26:24;9.30;99.90
20534;DHT22;12929;56.822;26.056;2022-09-12T00:28:51;9.30;99.90
20534;DHT22;12929;56.822;26.056;2022-09-12T00:31:22;9.20;99.90
20534;DHT22;12929;56.822;26.056;2022-09-12T00:33:57;9.20;99.90
20534;DHT22;12929;56.822;26.056;2022-09-12T00:36:25;9.30;99.90
20534;DHT22;12929;56.822;26.056;2022-09-12T00:38:53;9.20;99.90
20534;DHT22;12929;56.822;26.056;2022-09-12T00:46:56;9.20;99.90
20534;DHT22;12929;56.822;26.056;2022-09-12T00:52:34;9.20;99.90
20534;DHT22;12929;56.822;26.056;2022-09-12T00:57:53;9.10;99.90
20534;DHT22;12929;56.822;26.056;2022-09-12T01:00:25;9.10;99.90
20534;DHT22;12929;56.822;26.056;2022-09-12T01:02:59;9.00;99.90
20534;DHT22;12929;56.822;26.056;2022-09-12T01:05:29;9.20;99.90
20534;DHT22;12929;56.822;26.056;2022-09-12T01:08:00;9.10;99.90
20534;DHT22;12929;56.822;26.056;2022-09-12T01:10:29;9.20;99.90
20534;DHT22;12929;56.822;26.056;2022-09-12T01:12:57;9.20;99.90
20534;DHT22;12929;56.822;26.056;2022-09-12T01:15:28;9.20;99.90
20534;DHT22;12929;56.822;26.056;2022-09-12T01:18:08;9.20;99.90
20534;DHT22;12929;56.822;26.056;2022-09-12T01:38:22;9.20;99.90
20534;DHT22;12929;56.822;26.056;2022-09-12T01:46:22;9.20;99.90
20534;DHT22;12929;56.822;26.056;2022-09-12T01:49:06;9.10;99.90
20534;DHT22;12929;56.822;26.056;2022-09-12T01:51:59;9.10;99.90
20534;DHT22;12929;56.822;26.056;2022-09-12T01:55:14;9.10;99.90
20534;DHT22;12929;56.822;26.056;2022-09-12T01:58:09;9.20;99.90
20534;DHT22;12929;56.822;26.056;2022-09-12T02:00:38;9.10;99.90
20534;DHT22;12929;56.822;26.056;2022-09-12T02:03:14;9.00;99.90
20534;DHT22;12929;56.822;26.056;2022-09-12T02:05:57;9.00;99.90
20534;DHT22;12929;56.822;26.056;2022-09-12T02:08:34;9.10;99.90
20534;DHT22;12929;56.822;26.056;2022-09-12T02:11:09;9.10;99.90
20534;DHT22;12929;56.822;26.056;2022-09-12T02:13:58;9.10;99.90
20534;DHT22;12929;56.822;26.056;2022-09-12T02:16:39;9.00;99.90
20534;DHT22;12929;56.822;26.056;2022-09-12T02:19:19;9.10;99.90
20534;DHT22;12929;56.822;26.056;2022-09-12T02:24:41;9.20;99.90
20534;DHT22;12929;56.822;26.056;2022-09-12T02:27:20;9.00;99.90
20534;DHT22;12929;56.822;26.056;2022-09-12T02:29:50;9.10;99.90
20534;DHT22;12929;56.822;26.056;2022-09-12T02:35:03;9.10;99.90
20534;DHT22;12929;56.822;26.056;2022-09-12T02:40:16;9.10;99.90
20534;DHT22;12929;56.822;26.056;2022-09-12T02:42:45;9.20;99.90
20534;DHT22;12929;56.822;26.056;2022-09-12T02:45:12;9.10;99.90
20534;DHT22;12929;56.822;26.056;2022-09-12T02:47:47;9.10;99.90
20534;DHT22;12929;56.822;26.056;2022-09-12T02:50:16;9.10;99.90
20534;DHT22;12929;56.822;26.056;2022-09-12T02:52:44;9.10;99.90
20534;DHT22;12929;56.822;26.056;2022-09-12T02:55:13;9.10;99.90
20534;DHT22;12929;56.822;26.056;2022-09-12T02:57:41;9.10;99.90
20534;DHT22;12929;56.822;26.056;2022-09-12T03:00:09;9.10;99.90
20534;DHT22;12929;56.822;26.056;2022-09-12T03:05:36;9.10;99.90
20534;DHT22;12929;56.822;26.056;2022-09-12T03:11:15;9.10;99.90
20534;DHT22;12929;56.822;26.056;2022-09-12T03:14:10;9.00;99.90
20534;DHT22;12929;56.822;26.056;2022-09-12T03:17:05;9.10;99.90
20534;DHT22;12929;56.822;26.056;2022-09-12T03:19:57;9.20;99.90
20534;DHT22;12929;56.822;26.056;2022-09-12T03:22:57;9.20;99.90
20534;DHT22;12929;56.822;26.056;2022-09-12T03:25:35;9.10;99.90
20534;DHT22;12929;56.822;26.056;2022-09-12T03:28:16;9.20;99.90
20534;DHT22;12929;56.822;26.056;2022-09-12T03:30:47;9.20;99.90
20534;DHT22;12929;56.822;26.056;2022-09-12T03:33:17;9.10;99.90
20534;DHT22;12929;56.822;26.056;2022-09-12T03:35:45;9.10;99.90
20534;DHT22;12929;56.822;26.056;2022-09-12T03:38:14;9.20;99.90
20534;DHT22;12929;56.822;26.056;2022-09-12T03:40:42;9.20;99.90
20534;DHT22;12929;56.822;26.056;2022-09-12T03:43:10;9.10;99.90
20534;DHT22;12929;56.822;26.056;2022-09-12T03:45:38;9.00;99.90
20534;DHT22;12929;56.822;26.056;2022-09-12T03:48:06;9.00;99.90
20534;DHT22;12929;56.822;26.056;2022-09-12T03:50:33;9.00;99.90
20534;DHT22;12929;56.822;26.056;2022-09-12T03:53:02;8.90;99.90
20534;DHT22;12929;56.822;26.056;2022-09-12T03:55:29;9.00;99.90
20534;DHT22;12929;56.822;26.056;2022-09-12T03:57:57;9.00;99.90
20534;DHT22;12929;56.822;26.056;2022-09-12T04:00:24;9.00;99.90
20534;DHT22;12929;56.822;26.056;2022-09-12T04:02:53;9.10;99.90
20534;DHT22;12929;56.822;26.056;2022-09-12T04:05:23;9.10;99.90
20534;DHT22;12929;56.822;26.056;2022-09-12T04:07:51;9.20;99.90
20534;DHT22;12929;56.822;26.056;2022-09-12T04:10:19;9.00;99.90
20534;DHT22;12929;56.822;26.056;2022-09-12T04:12:46;9.10;99.90
20534;DHT22;12929;56.822;26.056;2022-09-12T04:15:14;9.10;99.90
20534;DHT22;12929;56.822;26.056;2022-09-12T04:17:41;9.00;99.90
20534;DHT22;12929;56.822;26.056;2022-09-12T04:20:09;9.00;99.90
20534;DHT22;12929;56.822;26.056;2022-09-12T04:22:37;9.00;99.90
20534;DHT22;12929;56.822;26.056;2022-09-12T04:25:05;9.00;99.90
20534;DHT22;12929;56.822;26.056;2022-09-12T04:27:33;9.00;99.90
20534;DHT22;12929;56.822;26.056;2022-09-12T04:30:01;9.10;99.90
20534;DHT22;12929;56.822;26.056;2022-09-12T04:32:30;9.00;99.90
20534;DHT22;12929;56.822;26.056;2022-09-12T04:34:57;9.00;99.90
20534;DHT22;12929;56.822;26.056;2022-09-12T04:37:25;9.00;99.90
20534;DHT22;12929;56.822;26.056;2022-09-12T04:39:53;9.00;99.90
20534;DHT22;12929;56.822;26.056;2022-09-12T04:42:24;9.10;99.90
20534;DHT22;12929;56.822;26.056;2022-09-12T04:44:51;9.10;99.90
20534;DHT22;12929;56.822;26.056;2022-09-12T04:47:19;9.10;99.90
20534;DHT22;12929;56.822;26.056;2022-09-12T04:49:47;9.20;99.90
20534;DHT22;12929;56.822;26.056;2022-09-12T04:52:17;9.10;99.90
20534;DHT22;12929;56.822;26.056;2022-09-12T04:54:44;9.10;99.90
20534;DHT22;12929;56.822;26.056;2022-09-12T04:57:12;9.10;99.90
20534;DHT22;12929;56.822;26.056;2022-09-12T04:59:39;9.10;99.90
20534;DHT22;12929;56.822;26.056;2022-09-12T05:02:07;9.00;99.90
20534;DHT22;12929;56.822;26.056;2022-09-12T05:04:35;9.00;99.90
20534;DHT22;12929;56.822;26.056;2022-09-12T05:07:02;9.00;99.90
20534;DHT22;12929;56.822;26.056;2022-09-12T05:09:30;9.10;99.90
20534;DHT22;12929;56.822;26.056;2022-09-12T05:11:58;9.00;99.90
20534;DHT22;12929;56.822;26.056;2022-09-12T05:14:31;9.10;99.90
20534;DHT22;12929;56.822;26.056;2022-09-12T05:16:59;9.10;99.90
20534;DHT22;12929;56.822;26.056;2022-09-12T05:19:29;9.10;99.90
20534;DHT22;12929;56.822;26.056;2022-09-12T05:21:57;9.10;99.90
20534;DHT22;12929;56.822;26.056;2022-09-12T05:24:25;9.00;99.90
20534;DHT22;12929;56.822;26.056;2022-09-12T05:26:52;9.00;99.90
20534;DHT22;12929;56.822;26.056;2022-09-12T05:29:20;9.10;99.90
20534;DHT22;12929;56.822;26.056;2022-09-12T05:31:48;9.10;99.90
20534;DHT22;12929;56.822;26.056;2022-09-12T05:34:19;9.00;99.90
20534;DHT22;12929;56.822;26.056;2022-09-12T05:36:47;9.10;99.90
20534;DHT22;12929;56.822;26.056;2022-09-12T05:39:16;9.10;99.90
20534;DHT22;12929;56.822;26.056;2022-09-12T05:41:47;9.10;99.90
20534;DHT22;12929;56.822;26.056;2022-09-12T05:44:14;9.10;99.90
20534;DHT22;12929;56.822;26.056;2022-09-12T05:46:43;9.20;99.90
20534;DHT22;12929;56.822;26.056;2022-09-12T05:49:12;9.20;99.90
20534;DHT22;12929;56.822;26.056;2022-09-12T05:51:43;9.20;99.90
20534;DHT22;12929;56.822;26.056;2022-09-12T05:54:13;9.10;99.90
20534;DHT22;12929;56.822;26.056;2022-09-12T05:56:42;9.10;99.90
20534;DHT22;12929;56.822;26.056;2022-09-12T05:59:13;9.10;99.90
20534;DHT22;12929;56.822;26.056;2022-09-12T06:01:41;9.00;99.90
20534;DHT22;12929;56.822;26.056;2022-09-12T06:04:10;9.10;99.90
20534;DHT22;12929;56.822;26.056;2022-09-12T06:06:43;9.00;99.90
20534;DHT22;12929;56.822;26.056;2022-09-12T06:09:13;9.00;99.90
20534;DHT22;12929;56.822;26.056;2022-09-12T06:11:42;9.10;99.90
20534;DHT22;12929;56.822;26.056;2022-09-12T06:14:12;9.10;99.90
20534;DHT22;12929;56.822;26.056;2022-09-12T06:16:40;9.10;99.90
20534;DHT22;12929;56.822;26.056;2022-09-12T06:19:13;9.10;99.90
20534;DHT22;12929;56.822;26.056;2022-09-12T06:21:41;9.00;99.90
20534;DHT22;12929;56.822;26.056;2022-09-12T06:24:09;9.00;99.90
20534;DHT22;12929;56.822;26.056;2022-09-12T06:26:37;9.00;99.90
20534;DHT22;12929;56.822;26.056;2022-09-12T06:29:04;9.10;99.90
20534;DHT22;12929;56.822;26.056;2022-09-12T06:31:34;9.00;99.90
20534;DHT22;12929;56.822;26.056;2022-09-12T06:34:05;9.00;99.90
20534;DHT22;12929;56.822;26.056;2022-09-12T06:36:37;9.10;99.90
20534;DHT22;12929;56.822;26.056;2022-09-12T06:39:08;9.20;99.90
20534;DHT22;12929;56.822;26.056;2022-09-12T06:41:36;9.10;99.90
20534;DHT22;12929;56.822;26.056;2022-09-12T06:44:18;9.10;99.90
20534;DHT22;12929;56.822;26.056;2022-09-12T06:46:46;9.10;99.90
20534;DHT22;12929;56.822;26.056;2022-09-12T06:49:14;9.20;99.90
20534;DHT22;12929;56.822;26.056;2022-09-12T06:51:44;9.10;99.90
20534;DHT22;12929;56.822;26.056;2022-09-12T06:54:12;9.10;99.90
20534;DHT22;12929;56.822;26.056;2022-09-12T06:56:40;9.10;99.90
20534;DHT22;12929;56.822;26.056;2022-09-12T06:59:08;9.10;99.90
20534;DHT22;12929;56.822;26.056;2022-09-12T07:01:35;9.20;99.90
20534;DHT22;12929;56.822;26.056;2022-09-12T07:04:03;9.20;99.90
20534;DHT22;12929;56.822;26.056;2022-09-12T07:06:36;9.20;99.90
20534;DHT22;12929;56.822;26.056;2022-09-12T07:09:06;9.20;99.90
20534;DHT22;12929;56.822;26.056;2022-09-12T07:11:36;9.20;99.90
20534;DHT22;12929;56.822;26.056;2022-09-12T07:14:05;9.30;99.90
20534;DHT22;12929;56.822;26.056;2022-09-12T07:16:36;9.20;99.90
20534;DHT22;12929;56.822;26.056;2022-09-12T07:19:05;9.20;99.90
20534;DHT22;12929;56.822;26.056;2022-09-12T07:21:33;9.20;99.90
20534;DHT22;12929;56.822;26.056;2022-09-12T07:24:08;9.30;99.90
20534;DHT22;12929;56.822;26.056;2022-09-12T07:26:37;9.30;99.90
20534;DHT22;12929;56.822;26.056;2022-09-12T07:29:04;9.30;99.90
20534;DHT22;12929;56.822;26.056;2022-09-12T07:31:52;9.30;99.90
20534;DHT22;12929;56.822;26.056;2022-09-12T07:34:20;9.30;99.90
20534;DHT22;12929;56.822;26.056;2022-09-12T07:36:48;9.30;99.90
20534;DHT22;12929;56.822;26.056;2022-09-12T07:39:17;9.30;99.90
20534;DHT22;12929;56.822;26.056;2022-09-12T07:41:47;9.20;99.90
20534;DHT22;12929;56.822;26.056;2022-09-12T07:44:14;9.20;99.90
20534;DHT22;12929;56.822;26.056;2022-09-12T07:46:42;9.20;99.90
20534;DHT22;12929;56.822;26.056;2022-09-12T07:49:11;9.20;99.90
20534;DHT22;12929;56.822;26.056;2022-09-12T07:51:38;9.20;99.90
20534;DHT22;12929;56.822;26.056;2022-09-12T07:54:07;9.20;99.90
20534;DHT22;12929;56.822;26.056;2022-09-12T07:56:35;9.30;99.90
20534;DHT22;12929;56.822;26.056;2022-09-12T07:59:08;9.20;99.90
20534;DHT22;12929;56.822;26.056;2022-09-12T08:01:35;9.30;99.90
20534;DHT22;12929;56.822;26.056;2022-09-12T08:04:03;9.30;99.90
20534;DHT22;12929;56.822;26.056;2022-09-12T08:06:32;9.40;99.90
20534;DHT22;12929;56.822;26.056;2022-09-12T08:09:03;9.40;99.90
20534;DHT22;12929;56.822;26.056;2022-09-12T08:11:30;9.30;99.90
20534;DHT22;12929;56.822;26.056;2022-09-12T08:13:58;9.40;99.90
20534;DHT22;12929;56.822;26.056;2022-09-12T08:16:29;9.40;99.90
20534;DHT22;12929;56.822;26.056;2022-09-12T08:18:59;9.40;99.90
20534;DHT22;12929;56.822;26.056;2022-09-12T08:21:28;9.30;99.90
20534;DHT22;12929;56.822;26.056;2022-09-12T08:23:58;9.40;99.90
20534;DHT22;12929;56.822;26.056;2022-09-12T08:26:30;9.40;99.90
20534;DHT22;12929;56.822;26.056;2022-09-12T08:28:59;9.40;99.90
20534;DHT22;12929;56.822;26.056;2022-09-12T08:31:27;9.40;99.90
20534;DHT22;12929;56.822;26.056;2022-09-12T08:33:56;9.40;99.90
20534;DHT22;12929;56.822;26.056;2022-09-12T08:36:26;9.40;99.90
20534;DHT22;12929;56.822;26.056;2022-09-12T08:38:55;9.40;99.90
20534;DHT22;12929;56.822;26.056;2022-09-12T08:55:42;9.50;99.90
20534;DHT22;12929;56.822;26.056;2022-09-12T08:58:14;9.60;99.90
20534;DHT22;12929;56.822;26.056;2022-09-12T09:15:02;9.70;99.90
20534;DHT22;12929;56.822;26.056;2022-09-12T09:17:45;9.70;99.90
20534;DHT22;12929;56.822;26.056;2022-09-12T09:20:38;9.70;99.90
20534;DHT22;12929;56.822;26.056;2022-09-12T09:28:45;9.60;99.90
20534;DHT22;12929;56.822;26.056;2022-09-12T09:31:19;9.60;99.90
20534;DHT22;12929;56.822;26.056;2022-09-12T09:33:51;9.60;99.90
20534;DHT22;12929;56.822;26.056;2022-09-12T09:42:25;9.60;99.90
20534;DHT22;12929;56.822;26.056;2022-09-12T09:44:59;9.50;99.90
20534;DHT22;12929;56.822;26.056;2022-09-12T09:47:31;9.60;99.90
20534;DHT22;12929;56.822;26.056;2022-09-12T09:49:58;9.60;99.90
20534;DHT22;12929;56.822;26.056;2022-09-12T09:52:28;9.60;99.90
20534;DHT22;12929;56.822;26.056;2022-09-12T09:54:59;9.60;99.90
20534;DHT22;12929;56.822;26.056;2022-09-12T10:06:01;9.60;99.90
20534;DHT22;12929;56.822;26.056;2022-09-12T10:08:34;9.60;99.90
20534;DHT22;12929;56.822;26.056;2022-09-12T10:11:18;9.70;99.90
20534;DHT22;12929;56.822;26.056;2022-09-12T10:13:53;9.70;99.90
20534;DHT22;12929;56.822;26.056;2022-09-12T10:16:26;9.70;99.90
20534;DHT22;12929;56.822;26.056;2022-09-12T10:18:56;9.70;99.90
20534;DHT22;12929;56.822;26.056;2022-09-12T10:21:41;9.70;99.90
20534;DHT22;12929;56.822;26.056;2022-09-12T10:26:57;9.70;99.90
20534;DHT22;12929;56.822;26.056;2022-09-12T10:29:35;9.70;99.90
20534;DHT22;12929;56.822;26.056;2022-09-12T10:32:07;9.60;99.90
20534;DHT22;12929;56.822;26.056;2022-09-12T10:34:37;9.70;99.90
20534;DHT22;12929;56.822;26.056;2022-09-12T10:37:16;9.60;99.90
20534;DHT22;12929;56.822;26.056;2022-09-12T10:39:52;9.70;99.90
20534;DHT22;12929;56.822;26.056;2022-09-12T10:42:44;9.70;99.90
20534;DHT22;12929;56.822;26.056;2022-09-12T10:45:28;9.70;99.90
20534;DHT22;12929;56.822;26.056;2022-09-12T10:47:58;9.70;99.90
20534;DHT22;12929;56.822;26.056;2022-09-12T10:50:40;9.70;99.90
20534;DHT22;12929;56.822;26.056;2022-09-12T10:53:39;9.80;99.90
20534;DHT22;12929;56.822;26.056;2022-09-12T10:56:11;9.80;99.90
20534;DHT22;12929;56.822;26.056;2022-09-12T11:20:53;9.80;99.90
20534;DHT22;12929;56.822;26.056;2022-09-12T11:26:52;9.70;99.90
20534;DHT22;12929;56.822;26.056;2022-09-12T11:32:56;9.80;99.90
20534;DHT22;12929;56.822;26.056;2022-09-12T11:35:28;9.80;99.90
20534;DHT22;12929;56.822;26.056;2022-09-12T11:40:43;9.70;99.90
20534;DHT22;12929;56.822;26.056;2022-09-12T11:43:31;9.80;99.90
20534;DHT22;12929;56.822;26.056;2022-09-12T11:46:51;9.80;99.90
20534;DHT22;12929;56.822;26.056;2022-09-12T11:51:56;9.80;99.90
20534;DHT22;12929;56.822;26.056;2022-09-12T11:57:28;9.80;99.90
20534;DHT22;12929;56.822;26.056;2022-09-12T12:00:18;9.80;99.90
20534;DHT22;12929;56.822;26.056;2022-09-12T12:03:10;9.70;99.90
20534;DHT22;12929;56.822;26.056;2022-09-12T12:06:00;9.80;99.90
20534;DHT22;12929;56.822;26.056;2022-09-12T12:08:41;9.80;99.90
20534;DHT22;12929;56.822;26.056;2022-09-12T12:11:32;9.80;99.90
20534;DHT22;12929;56.822;26.056;2022-09-12T12:14:04;9.90;99.90
20534;DHT22;12929;56.822;26.056;2022-09-12T12:16:39;9.90;99.90
20534;DHT22;12929;56.822;26.056;2022-09-12T12:21:51;9.90;99.90
20534;DHT22;12929;56.822;26.056;2022-09-12T12:24:21;9.90;99.90
20534;DHT22;12929;56.822;26.056;2022-09-12T12:27:02;10.00;99.90
20534;DHT22;12929;56.822;26.056;2022-09-12T12:34:32;10.00;99.90
20534;DHT22;12929;56.822;26.056;2022-09-12T12:48:07;9.90;99.90
20534;DHT22;12929;56.822;26.056;2022-09-12T12:50:35;9.90;99.90
20534;DHT22;12929;56.822;26.056;2022-09-12T12:53:05;10.00;99.90
20534;DHT22;12929;56.822;26.056;2022-09-12T12:55:44;10.00;99.90
20534;DHT22;12929;56.822;26.056;2022-09-12T13:00:46;9.90;99.90
20534;DHT22;12929;56.822;26.056;2022-09-12T13:03:31;9.90;99.90
20534;DHT22;12929;56.822;26.056;2022-09-12T13:06:05;9.80;99.90
20534;DHT22;12929;56.822;26.056;2022-09-12T13:08:38;9.90;99.90
20534;DHT22;12929;56.822;26.056;2022-09-12T13:11:09;9.90;99.90
20534;DHT22;12929;56.822;26.056;2022-09-12T13:13:45;9.90;99.90
20534;DHT22;12929;56.822;26.056;2022-09-12T13:16:50;9.90;99.90
20534;DHT22;12929;56.822;26.056;2022-09-12T13:19:31;9.90;99.90
20534;DHT22;12929;56.822;26.056;2022-09-12T13:22:05;9.90;99.90
20534;DHT22;12929;56.822;26.056;2022-09-12T13:24:41;9.90;99.90
20534;DHT22;12929;56.822;26.056;2022-09-12T13:29:46;10.00;99.90
20534;DHT22;12929;56.822;26.056;2022-09-12T13:32:15;9.90;99.90
20534;DHT22;12929;56.822;26.056;2022-09-12T13:37:43;9.90;99.90
20534;DHT22;12929;56.822;26.056;2022-09-12T13:40:28;10.00;99.90
20534;DHT22;12929;56.822;26.056;2022-09-12T13:43:12;10.00;99.90
20534;DHT22;12929;56.822;26.056;2022-09-12T13:45:45;10.00;99.90
20534;DHT22;12929;56.822;26.056;2022-09-12T13:48:19;10.00;99.90
20534;DHT22;12929;56.822;26.056;2022-09-12T13:50:51;10.00;99.90
20534;DHT22;12929;56.822;26.056;2022-09-12T13:53:24;9.90;99.90
20534;DHT22;12929;56.822;26.056;2022-09-12T13:55:55;9.90;99.90
20534;DHT22;12929;56.822;26.056;2022-09-12T13:58:26;9.90;99.90
20534;DHT22;12929;56.822;26.056;2022-09-12T14:03:55;9.80;99.90
20534;DHT22;12929;56.822;26.056;2022-09-12T14:06:50;9.80;99.90
20534;DHT22;12929;56.822;26.056;2022-09-12T14:11:55;9.80;99.90
20534;DHT22;12929;56.822;26.056;2022-09-12T14:14:29;9.70;99.90
20534;DHT22;12929;56.822;26.056;2022-09-12T14:16:58;9.70;99.90
20534;DHT22;12929;56.822;26.056;2022-09-12T14:19:26;9.70;99.90
20534;DHT22;12929;56.822;26.056;2022-09-12T14:21:56;9.70;99.90
20534;DHT22;12929;56.822;26.056;2022-09-12T14:24:23;9.70;99.90
20534;DHT22;12929;56.822;26.056;2022-09-12T14:26:53;9.70;99.90
20534;DHT22;12929;56.822;26.056;2022-09-12T14:29:23;9.80;99.90
20534;DHT22;12929;56.822;26.056;2022-09-12T14:32:04;9.80;99.90
20534;DHT22;12929;56.822;26.056;2022-09-12T14:34:32;9.90;99.90
20534;DHT22;12929;56.822;26.056;2022-09-12T14:37:05;9.90;99.90
20534;DHT22;12929;56.822;26.056;2022-09-12T14:39:40;10.00;99.90
20534;DHT22;12929;56.822;26.056;2022-09-12T14:42:15;9.90;99.90
20534;DHT22;12929;56.822;26.056;2022-09-12T14:45:02;9.90;99.90
20534;DHT22;12929;56.822;26.056;2022-09-12T14:47:40;10.00;99.90
20534;DHT22;12929;56.822;26.056;2022-09-12T14:50:23;9.90;99.90
20534;DHT22;12929;56.822;26.056;2022-09-12T14:56:02;9.90;99.90
20534;DHT22;12929;56.822;26.056;2022-09-12T14:58:32;9.90;99.90
20534;DHT22;12929;56.822;26.056;2022-09-12T15:01:00;9.90;99.90
20534;DHT22;12929;56.822;26.056;2022-09-12T15:03:29;10.00;99.90
20534;DHT22;12929;56.822;26.056;2022-09-12T15:05:59;10.00;99.90
20534;DHT22;12929;56.822;26.056;2022-09-12T15:08:28;10.00;99.90
20534;DHT22;12929;56.822;26.056;2022-09-12T15:10:56;10.00;99.90
20534;DHT22;12929;56.822;26.056;2022-09-12T15:13:26;10.00;99.90
20534;DHT22;12929;56.822;26.056;2022-09-12T15:15:55;10.00;99.90
20534;DHT22;12929;56.822;26.056;2022-09-12T15:18:25;10.00;99.90
20534;DHT22;12929;56.822;26.056;2022-09-12T15:21:02;10.00;99.90
20534;DHT22;12929;56.822;26.056;2022-09-12T15:23:47;9.90;99.90
20534;DHT22;12929;56.822;26.056;2022-09-12T15:26:23;9.90;99.90
20534;DHT22;12929;56.822;26.056;2022-09-12T15:28:53;9.90;99.90
20534;DHT22;12929;56.822;26.056;2022-09-12T15:31:26;10.00;99.90
20534;DHT22;12929;56.822;26.056;2022-09-12T15:33:56;10.00;99.90
20534;DHT22;12929;56.822;26.056;2022-09-12T15:36:25;10.00;99.90
20534;DHT22;12929;56.822;26.056;2022-09-12T15:38:53;10.00;99.90
20534;DHT22;12929;56.822;26.056;2022-09-12T15:41:35;10.00;99.90
20534;DHT22;12929;56.822;26.056;2022-09-12T15:44:06;10.00;99.90
20534;DHT22;12929;56.822;26.056;2022-09-12T15:46:34;10.00;99.90
20534;DHT22;12929;56.822;26.056;2022-09-12T15:49:02;10.00;99.90
20534;DHT22;12929;56.822;26.056;2022-09-12T15:51:29;9.90;99.90
20534;DHT22;12929;56.822;26.056;2022-09-12T15:53:57;9.90;99.90
20534;DHT22;12929;56.822;26.056;2022-09-12T15:56:25;9.90;99.90
20534;DHT22;12929;56.822;26.056;2022-09-12T15:58:53;9.90;99.90
20534;DHT22;12929;56.822;26.056;2022-09-12T16:01:27;9.90;99.90
20534;DHT22;12929;56.822;26.056;2022-09-12T16:03:55;10.00;99.90
20534;DHT22;12929;56.822;26.056;2022-09-12T16:06:23;9.90;99.90
20534;DHT22;12929;56.822;26.056;2022-09-12T16:08:51;9.90;99.90
20534;DHT22;12929;56.822;26.056;2022-09-12T16:11:25;10.00;99.90
20534;DHT22;12929;56.822;26.056;2022-09-12T16:13:53;9.80;99.90
20534;DHT22;12929;56.822;26.056;2022-09-12T16:16:21;9.80;99.90
20534;DHT22;12929;56.822;26.056;2022-09-12T16:18:49;9.90;99.90
20534;DHT22;12929;56.822;26.056;2022-09-12T16:21:17;9.80;99.90
20534;DHT22;12929;56.822;26.056;2022-09-12T16:23:47;9.80;99.90
20534;DHT22;12929;56.822;26.056;2022-09-12T16:26:15;9.80;99.90
20534;DHT22;12929;56.822;26.056;2022-09-12T16:28:43;9.80;99.90
20534;DHT22;12929;56.822;26.056;2022-09-12T16:31:12;9.80;99.90
20534;DHT22;12929;56.822;26.056;2022-09-12T16:33:40;9.80;99.90
20534;DHT22;12929;56.822;26.056;2022-09-12T16:36:13;9.80;99.90
20534;DHT22;12929;56.822;26.056;2022-09-12T16:38:49;9.90;99.90
20534;DHT22;12929;56.822;26.056;2022-09-12T16:41:19;9.80;99.90
20534;DHT22;12929;56.822;26.056;2022-09-12T16:43:47;9.90;99.90
20534;DHT22;12929;56.822;26.056;2022-09-12T16:46:17;9.90;99.90
20534;DHT22;12929;56.822;26.056;2022-09-12T16:48:48;9.80;99.90
20534;DHT22;12929;56.822;26.056;2022-09-12T16:51:23;9.80;99.90
20534;DHT22;12929;56.822;26.056;2022-09-12T16:53:53;9.80;99.90
20534;DHT22;12929;56.822;26.056;2022-09-12T16:56:22;9.80;99.90
20534;DHT22;12929;56.822;26.056;2022-09-12T16:58:50;9.80;99.90
20534;DHT22;12929;56.822;26.056;2022-09-12T17:01:20;9.80;99.90
20534;DHT22;12929;56.822;26.056;2022-09-12T17:03:54;9.80;99.90
20534;DHT22;12929;56.822;26.056;2022-09-12T17:06:23;9.80;99.90
20534;DHT22;12929;56.822;26.056;2022-09-12T17:08:53;9.80;99.90
20534;DHT22;12929;56.822;26.056;2022-09-12T17:11:24;9.80;99.90
20534;DHT22;12929;56.822;26.056;2022-09-12T17:13:54;9.80;99.90
20534;DHT22;12929;56.822;26.056;2022-09-12T17:16:38;9.80;99.90
20534;DHT22;12929;56.822;26.056;2022-09-12T17:19:07;9.60;99.90
20534;DHT22;12929;56.822;26.056;2022-09-12T17:21:35;9.70;99.90
20534;DHT22;12929;56.822;26.056;2022-09-12T17:24:03;9.80;99.90
20534;DHT22;12929;56.822;26.056;2022-09-12T17:26:30;9.70;99.90
20534;DHT22;12929;56.822;26.056;2022-09-12T17:28:58;9.70;99.90
20534;DHT22;12929;56.822;26.056;2022-09-12T17:31:26;9.80;99.90
20534;DHT22;12929;56.822;26.056;2022-09-12T17:33:58;9.90;99.90
20534;DHT22;12929;56.822;26.056;2022-09-12T17:36:27;9.80;99.90
20534;DHT22;12929;56.822;26.056;2022-09-12T17:38:55;9.80;99.90
20534;DHT22;12929;56.822;26.056;2022-09-12T17:41:24;9.80;99.90
20534;DHT22;12929;56.822;26.056;2022-09-12T17:43:54;9.80;99.90
20534;DHT22;12929;56.822;26.056;2022-09-12T17:46:26;9.80;99.90
20534;DHT22;12929;56.822;26.056;2022-09-12T17:48:57;9.80;99.90
20534;DHT22;12929;56.822;26.056;2022-09-12T17:51:26;9.80;99.90
20534;DHT22;12929;56.822;26.056;2022-09-12T17:54:04;9.80;99.90
20534;DHT22;12929;56.822;26.056;2022-09-12T17:56:34;9.70;99.90
20534;DHT22;12929;56.822;26.056;2022-09-12T17:59:03;9.70;99.90
20534;DHT22;12929;56.822;26.056;2022-09-12T18:01:31;9.80;99.90
20534;DHT22;12929;56.822;26.056;2022-09-12T18:04:17;9.70;99.90
20534;DHT22;12929;56.822;26.056;2022-09-12T18:06:46;9.60;99.90
20534;DHT22;12929;56.822;26.056;2022-09-12T18:09:17;9.70;99.90
20534;DHT22;12929;56.822;26.056;2022-09-12T18:11:46;9.60;99.90
20534;DHT22;12929;56.822;26.056;2022-09-12T18:14:15;9.70;99.90
20534;DHT22;12929;56.822;26.056;2022-09-12T18:16:44;9.80;99.90
20534;DHT22;12929;56.822;26.056;2022-09-12T18:19:12;9.80;99.90
20534;DHT22;12929;56.822;26.056;2022-09-12T18:21:40;9.80;99.90
20534;DHT22;12929;56.822;26.056;2022-09-12T18:24:08;9.70;99.90
20534;DHT22;12929;56.822;26.056;2022-09-12T18:26:36;9.70;99.90
20534;DHT22;12929;56.822;26.056;2022-09-12T18:29:03;9.80;99.90
20534;DHT22;12929;56.822;26.056;2022-09-12T18:31:31;9.80;99.90
20534;DHT22;12929;56.822;26.056;2022-09-12T18:33:59;9.80;99.90
20534;DHT22;12929;56.822;26.056;2022-09-12T18:36:28;9.80;99.90
20534;DHT22;12929;56.822;26.056;2022-09-12T18:39:01;9.70;99.90
20534;DHT22;12929;56.822;26.056;2022-09-12T18:41:29;9.80;99.90
20534;DHT22;12929;56.822;26.056;2022-09-12T18:43:58;9.80;99.90
20534;DHT22;12929;56.822;26.056;2022-09-12T18:46:28;9.70;99.90
20534;DHT22;12929;56.822;26.056;2022-09-12T18:48:57;9.70;99.90
20534;DHT22;12929;56.822;26.056;2022-09-12T18:51:33;9.70;99.90
20534;DHT22;12929;56.822;26.056;2022-09-12T18:54:10;9.60;99.90